Portada
METAR-TAF:

METAR-TAF

Aeroports :

Yurimaguas, Perú

latitud: 05-54S, longitud: 076-05W, altitud: 179 m

Observació

L'informe es va fer fa 45 minuts, a les 17:00 UTC
Vent 6 kt del Est/Nord-Est
Temperatura 31°C
Humitat 75%
Pressió 1012 hPa
Visibilitat 10 km o més
Núvols disperses a una alçada de 2000 ft
xàfecs en les proximitats

METAR: SPMS 071700Z 06006KT 9999 VCSH SCT020 31/26 Q1012 RMK BIRD HAZARD RWY 09/27 PP000

Hora: 12:45 (17:45 UTC)

Pronòstic

L'informe es va fer fa 45 minuts, a les 17:00 UTC
Pronòstic vàlid del 07 a les 18 UTC al 08 a les 18 UTC
Vent 4 kt del Est/Nord-Est
Visibilitat 10 km o més
Núvols disperses a una alçada de 2000 ft
Núvols disperses a una alçada de 10000 ft
Temporalment
l' 08 a les 09 UTC al 08 a les 13 UTC
Vent kt del Nord
Visibilitat: 5000 m
Cel ennuvolat a una alçada de 1000 ft
Cel ennuvolat a una alçada de 9000 ft
boirina

TAF: SPMS 071700Z 0718/0818 06004KT 9999 SCT020 SCT100 TX34/0720Z TN23/0811Z TEMPO 0809/0813 00000KT 5000 BR BKN010 BKN090

Observacions i pronòstics meteorològics de més de 4000 aeroports (METAR i TAF).

Les estacions disponibles són els punts grocs i vermells al mapa.

Posi el ratolí al punt desitjat per veure el nom de l'estació.

Feu clic per veure les observacions i els pronòstics meteorològics.

Per canviar el mapa: feu clic els botons verds amb una creu de color negre per apropar; al botó verd amb un guió per allunyar la imatge; o en les fletxes verdes per a mapes adjacents.


METAR-TAF: